createdAt,value
2018-03-30T00:02:06.199Z,92.90
2018-03-30T00:04:35.997Z,93.00
2018-03-30T00:07:07.850Z,93.00
2018-03-30T00:09:54.638Z,93.10
2018-03-30T00:12:23.792Z,93.10
2018-03-30T00:14:52.822Z,93.20
2018-03-30T00:17:21.841Z,93.20
2018-03-30T00:19:50.908Z,93.10
2018-03-30T00:22:20.713Z,93.20
2018-03-30T00:24:49.758Z,93.10
2018-03-30T00:27:18.826Z,93.00
2018-03-30T00:29:47.853Z,93.00
2018-03-30T00:32:17.671Z,92.70
2018-03-30T00:34:47.783Z,92.80
2018-03-30T00:37:16.808Z,92.80
2018-03-30T00:39:45.845Z,93.10
2018-03-30T00:42:14.906Z,92.80
2018-03-30T00:44:43.949Z,92.90
2018-03-30T00:47:12.967Z,93.00
2018-03-30T00:49:42.026Z,93.10
2018-03-30T00:52:11.058Z,93.20
2018-03-30T00:54:40.106Z,93.30
2018-03-30T00:57:09.269Z,93.20
2018-03-30T00:59:38.321Z,93.20
2018-03-30T01:02:08.137Z,93.30
2018-03-30T01:04:37.944Z,93.30
2018-03-30T01:07:07.742Z,93.60
2018-03-30T01:09:36.797Z,93.40
2018-03-30T01:12:05.849Z,93.40
2018-03-30T01:14:35.641Z,93.20
2018-03-30T01:17:04.706Z,93.20
2018-03-30T01:19:33.749Z,93.20
2018-03-30T01:22:03.537Z,93.30
2018-03-30T01:24:32.610Z,93.30
2018-03-30T01:27:01.639Z,93.30
2018-03-30T01:29:31.436Z,93.60
2018-03-30T01:32:00.496Z,93.50
2018-03-30T01:34:29.522Z,93.50
2018-03-30T01:36:58.726Z,93.60
2018-03-30T01:39:27.807Z,93.60
2018-03-30T01:41:56.831Z,93.60
2018-03-30T01:44:26.613Z,93.60
2018-03-30T01:46:55.674Z,93.60
2018-03-30T01:49:24.702Z,93.60
2018-03-30T01:51:53.730Z,93.60
2018-03-30T01:54:23.554Z,93.60
2018-03-30T01:56:52.575Z,93.60
2018-03-30T01:59:21.604Z,93.60
2018-03-30T02:01:50.757Z,93.60
2018-03-30T02:04:20.056Z,93.60
2018-03-30T02:06:49.082Z,93.50
2018-03-30T02:09:18.115Z,93.50
2018-03-30T02:11:47.904Z,93.40
2018-03-30T02:14:16.957Z,93.40
2018-03-30T02:16:46.019Z,93.40
2018-03-30T02:19:15.810Z,93.50
2018-03-30T02:21:44.990Z,93.50
2018-03-30T02:24:14.014Z,93.50
2018-03-30T02:26:43.805Z,93.60
2018-03-30T02:29:12.866Z,93.60
2018-03-30T02:31:41.897Z,93.60
2018-03-30T02:34:10.913Z,93.60
2018-03-30T02:36:40.082Z,93.60
2018-03-30T02:39:09.288Z,93.50
2018-03-30T02:41:38.306Z,93.50
2018-03-30T02:44:07.361Z,93.40
2018-03-30T02:46:36.403Z,93.30
2018-03-30T02:49:05.434Z,93.30
2018-03-30T02:51:34.502Z,93.40
2018-03-30T02:54:03.585Z,93.30
2018-03-30T02:56:32.610Z,93.30
2018-03-30T02:59:01.681Z,93.30
2018-03-30T03:01:30.711Z,93.30
2018-03-30T03:03:59.730Z,93.30
2018-03-30T03:06:29.571Z,93.30
2018-03-30T03:08:58.601Z,93.30
2018-03-30T03:11:27.625Z,93.20
2018-03-30T03:13:56.689Z,93.20
2018-03-30T03:16:25.714Z,93.30
2018-03-30T03:18:54.739Z,93.20
2018-03-30T03:21:23.807Z,93.20
2018-03-30T03:23:52.837Z,93.30
2018-03-30T03:26:21.882Z,93.30
2018-03-30T03:28:51.007Z,93.30
2018-03-30T03:31:19.980Z,93.30
2018-03-30T03:33:49.005Z,93.30
2018-03-30T03:36:18.100Z,93.40
2018-03-30T03:38:47.131Z,93.50
2018-03-30T03:41:16.362Z,93.60
2018-03-30T03:43:46.298Z,93.80
2018-03-30T03:46:15.322Z,93.70
2018-03-30T03:48:44.349Z,93.70
2018-03-30T03:51:13.508Z,93.50
2018-03-30T03:53:42.549Z,93.50
2018-03-30T03:56:11.570Z,93.40
2018-03-30T03:58:40.641Z,93.40
2018-03-30T04:01:10.433Z,93.20
2018-03-30T04:03:39.457Z,93.20
2018-03-30T04:06:09.393Z,93.20
2018-03-30T04:08:38.413Z,93.20
2018-03-30T04:11:07.444Z,93.60
2018-03-30T04:13:37.279Z,93.30
2018-03-30T04:16:07.068Z,93.20
2018-03-30T04:18:36.094Z,93.20
2018-03-30T04:21:05.149Z,93.30
2018-03-30T04:23:34.187Z,93.30
2018-03-30T04:26:03.201Z,93.20
2018-03-30T04:28:32.305Z,93.20
2018-03-30T04:31:01.329Z,93.20
2018-03-30T04:33:30.360Z,93.10
2018-03-30T04:35:59.424Z,93.10
2018-03-30T04:38:28.445Z,93.00
2018-03-30T04:40:57.529Z,92.90
2018-03-30T04:43:27.518Z,92.90
2018-03-30T04:45:56.546Z,92.90
2018-03-30T04:48:25.571Z,93.00
2018-03-30T04:50:54.718Z,93.10
2018-03-30T04:53:24.517Z,93.00
2018-03-30T04:55:53.542Z,93.00
2018-03-30T04:58:22.602Z,93.20
2018-03-30T05:00:51.621Z,92.80
2018-03-30T05:03:20.646Z,92.90
2018-03-30T05:05:49.727Z,93.00
2018-03-30T05:08:18.760Z,93.10
2018-03-30T05:10:47.782Z,93.10
2018-03-30T05:13:17.616Z,93.10
2018-03-30T05:15:46.644Z,93.10
2018-03-30T05:18:15.680Z,93.10
2018-03-30T05:20:45.597Z,93.00
2018-03-30T05:23:15.392Z,93.10
2018-03-30T05:25:44.422Z,93.10
2018-03-30T05:28:13.493Z,93.00
2018-03-30T05:30:43.288Z,92.80
2018-03-30T05:33:12.337Z,92.80
2018-03-30T05:35:41.350Z,92.90
2018-03-30T05:38:10.384Z,92.80
2018-03-30T05:40:40.225Z,93.30
2018-03-30T05:43:09.249Z,92.90
2018-03-30T05:45:38.333Z,92.90
2018-03-30T05:48:07.503Z,92.80
2018-03-30T05:50:37.285Z,92.50
2018-03-30T05:53:06.318Z,92.50
2018-03-30T05:55:35.349Z,92.70
2018-03-30T05:58:04.393Z,92.60
2018-03-30T06:00:34.203Z,92.50
2018-03-30T06:03:04.014Z,92.50
2018-03-30T06:05:33.816Z,92.60
2018-03-30T06:08:03.665Z,93.10
2018-03-30T06:10:33.428Z,92.90
2018-03-30T06:13:02.469Z,92.90
2018-03-30T06:15:31.489Z,92.80
2018-03-30T06:18:00.524Z,92.60
2018-03-30T06:20:30.356Z,92.60
2018-03-30T06:22:59.374Z,92.60
2018-03-30T06:25:28.401Z,92.80
2018-03-30T06:27:57.466Z,92.80
2018-03-30T06:30:26.510Z,93.10
2018-03-30T06:32:55.557Z,92.60
2018-03-30T06:35:24.613Z,92.60
2018-03-30T06:37:53.809Z,92.60
2018-03-30T06:40:23.581Z,92.40
2018-03-30T06:42:52.682Z,92.40
2018-03-30T06:45:21.705Z,92.20
2018-03-30T06:47:51.521Z,91.70
2018-03-30T06:50:20.553Z,91.70
2018-03-30T06:52:49.605Z,91.80
2018-03-30T06:55:19.445Z,91.70
2018-03-30T06:57:48.481Z,91.70
2018-03-30T07:00:18.154Z,91.70
2018-03-30T07:02:47.212Z,91.60
2018-03-30T07:05:17.051Z,91.10
2018-03-30T07:07:46.077Z,91.10
2018-03-30T07:10:15.138Z,90.70
2018-03-30T07:12:44.161Z,90.10
2018-03-30T07:15:13.218Z,90.20
2018-03-30T07:17:42.245Z,89.90
2018-03-30T07:20:11.293Z,89.90
2018-03-30T07:22:40.357Z,89.90
2018-03-30T07:25:09.381Z,90.00
2018-03-30T07:27:38.437Z,89.20
2018-03-30T07:30:07.511Z,87.50
2018-03-30T07:32:36.573Z,87.00
2018-03-30T07:35:05.600Z,87.90
2018-03-30T07:37:35.450Z,88.50
2018-03-30T07:40:05.249Z,87.80
2018-03-30T07:42:34.276Z,87.80
2018-03-30T07:45:03.334Z,86.40
2018-03-30T07:47:32.358Z,85.10
2018-03-30T07:50:02.165Z,85.50
2018-03-30T07:52:31.217Z,85.50
2018-03-30T07:55:00.242Z,85.40
2018-03-30T07:57:30.045Z,82.70
2018-03-30T07:59:59.137Z,82.60
2018-03-30T08:02:28.163Z,81.90
2018-03-30T08:04:57.204Z,82.90
2018-03-30T08:07:26.298Z,85.30
2018-03-30T08:09:55.364Z,82.60
2018-03-30T08:12:24.410Z,82.00
2018-03-30T08:14:53.567Z,83.30
2018-03-30T08:17:22.598Z,83.50
2018-03-30T08:19:51.625Z,82.00
2018-03-30T08:22:20.693Z,81.40
2018-03-30T08:24:49.729Z,81.00
2018-03-30T08:27:18.753Z,81.10
2018-03-30T08:29:48.026Z,80.60
2018-03-30T08:32:17.056Z,81.10
2018-03-30T08:34:46.102Z,80.50
2018-03-30T08:37:15.177Z,80.30
2018-03-30T08:39:44.989Z,78.00
2018-03-30T08:42:14.796Z,77.00
2018-03-30T08:44:44.638Z,76.20
2018-03-30T08:47:13.672Z,76.20
2018-03-30T08:49:42.706Z,76.90
2018-03-30T08:52:12.642Z,76.80
2018-03-30T08:54:41.678Z,76.70
2018-03-30T08:57:10.710Z,75.00
2018-03-30T08:59:39.786Z,75.20
2018-03-30T09:02:09.620Z,75.50
2018-03-30T09:04:38.664Z,75.50
2018-03-30T09:07:07.881Z,75.30
2018-03-30T09:09:37.848Z,76.40
2018-03-30T09:12:06.885Z,76.50
2018-03-30T09:14:35.925Z,75.00
2018-03-30T09:17:04.964Z,73.20
2018-03-30T09:19:34.061Z,72.20
2018-03-30T09:22:03.089Z,72.50
2018-03-30T09:24:32.897Z,71.70
2018-03-30T09:27:02.874Z,69.80
2018-03-30T09:29:31.882Z,69.70
2018-03-30T09:32:00.974Z,67.10
2018-03-30T09:34:30.065Z,67.60
2018-03-30T09:36:59.089Z,68.00
2018-03-30T09:39:28.129Z,69.00
2018-03-30T09:41:57.321Z,68.00
2018-03-30T09:44:26.356Z,68.20
2018-03-30T09:46:55.393Z,68.30
2018-03-30T09:49:24.497Z,68.30
2018-03-30T09:51:53.529Z,66.10
2018-03-30T09:54:22.582Z,68.40
2018-03-30T09:56:51.657Z,68.00
2018-03-30T09:59:21.469Z,66.40
2018-03-30T10:01:52.265Z,67.00
2018-03-30T10:04:23.322Z,66.90
2018-03-30T10:06:52.361Z,67.50
2018-03-30T10:09:21.393Z,67.80
2018-03-30T10:11:50.432Z,67.40
2018-03-30T10:14:19.527Z,67.60
2018-03-30T10:16:48.578Z,68.20
2018-03-30T10:19:19.297Z,71.30
2018-03-30T10:21:48.341Z,71.30
2018-03-30T10:24:17.377Z,71.20
2018-03-30T10:26:46.465Z,70.60
2018-03-30T10:29:15.500Z,70.20
2018-03-30T10:31:44.544Z,70.00
2018-03-30T10:34:13.683Z,70.70
2018-03-30T10:36:42.717Z,68.60
2018-03-30T10:39:11.766Z,69.00
2018-03-30T10:41:40.838Z,69.30
2018-03-30T10:44:09.873Z,68.40
2018-03-30T10:46:39.677Z,68.70
2018-03-30T10:49:08.770Z,68.70
2018-03-30T10:51:37.805Z,68.50
2018-03-30T10:54:06.845Z,68.40
2018-03-30T10:56:36.011Z,69.10
2018-03-30T10:59:05.063Z,69.80
2018-03-30T11:01:34.896Z,71.50
2018-03-30T11:04:03.941Z,71.40
2018-03-30T11:06:32.978Z,70.80
2018-03-30T11:09:02.148Z,70.60
2018-03-30T11:11:31.228Z,70.20
2018-03-30T11:14:00.254Z,70.90
2018-03-30T11:16:30.103Z,72.50
2018-03-30T11:18:59.166Z,72.50
2018-03-30T11:21:28.209Z,72.60
2018-03-30T11:23:57.306Z,72.60
2018-03-30T11:26:26.341Z,71.90
2018-03-30T11:28:56.146Z,72.90
2018-03-30T11:31:25.995Z,73.60
2018-03-30T11:33:55.050Z,73.50
2018-03-30T11:36:24.965Z,72.70
2018-03-30T11:38:54.868Z,72.60
2018-03-30T11:41:23.926Z,72.60
2018-03-30T11:43:53.008Z,73.20
2018-03-30T11:46:22.145Z,73.50
2018-03-30T11:48:51.188Z,74.30
2018-03-30T11:51:21.109Z,73.30
2018-03-30T11:53:51.032Z,72.80
2018-03-30T11:56:20.210Z,72.70
2018-03-30T11:58:50.153Z,73.40
2018-03-30T12:01:19.445Z,73.30
2018-03-30T12:03:48.746Z,73.20
2018-03-30T12:06:18.033Z,73.10
2018-03-30T12:08:47.985Z,72.00
2018-03-30T12:11:17.162Z,72.00
2018-03-30T12:13:46.357Z,72.40
2018-03-30T12:16:15.576Z,71.90
2018-03-30T12:18:44.810Z,71.60
2018-03-30T12:21:14.146Z,71.30
2018-03-30T12:23:43.348Z,70.90
2018-03-30T12:26:12.527Z,70.60
2018-03-30T12:28:42.641Z,69.10
2018-03-30T12:31:12.649Z,68.60
2018-03-30T12:33:41.850Z,68.60
2018-03-30T12:36:11.155Z,68.50
2018-03-30T12:38:41.286Z,67.60
2018-03-30T12:41:11.420Z,67.40
2018-03-30T12:43:40.722Z,67.40
2018-03-30T12:46:10.046Z,66.20
2018-03-30T12:48:39.307Z,67.70
2018-03-30T12:51:09.354Z,65.90
2018-03-30T12:53:38.615Z,65.90
2018-03-30T12:56:08.631Z,63.50
2018-03-30T12:58:37.954Z,63.50
2018-03-30T13:01:07.277Z,64.10
2018-03-30T13:03:36.630Z,63.60
2018-03-30T13:06:06.682Z,64.60
2018-03-30T13:08:35.981Z,64.50
2018-03-30T13:11:05.363Z,65.80
2018-03-30T13:13:34.597Z,65.40
2018-03-30T13:16:03.839Z,63.70
2018-03-30T13:18:33.077Z,64.20
2018-03-30T13:21:02.311Z,64.40
2018-03-30T13:23:31.496Z,64.50
2018-03-30T13:26:00.725Z,65.10
2018-03-30T13:28:29.937Z,65.40
2018-03-30T13:31:00.006Z,65.40
2018-03-30T13:33:29.434Z,65.40
2018-03-30T13:35:58.650Z,65.80
2018-03-30T13:38:27.906Z,66.00
2018-03-30T13:40:57.229Z,66.60
2018-03-30T13:43:26.499Z,66.70
2018-03-30T13:45:55.680Z,67.20
2018-03-30T13:48:24.949Z,67.90
2018-03-30T14:04:27.683Z,68.90
2018-03-30T14:07:00.430Z,69.10
2018-03-30T14:09:45.576Z,70.00
2018-03-30T14:12:24.664Z,69.20
2018-03-30T14:14:53.930Z,69.20
2018-03-30T14:31:21.499Z,70.00
2018-03-30T14:33:51.370Z,70.20
2018-03-30T14:50:27.520Z,72.30
2018-03-30T14:53:01.055Z,72.90
2018-03-30T14:55:33.793Z,72.90
2018-03-30T14:58:10.405Z,73.80
2018-03-30T15:00:56.305Z,73.80
2018-03-30T15:03:33.828Z,74.10
2018-03-30T15:06:23.167Z,74.70
2018-03-30T15:22:26.261Z,78.70
2018-03-30T15:25:05.013Z,79.20
2018-03-30T15:27:37.655Z,79.60
2018-03-30T15:30:40.926Z,79.70
2018-03-30T15:33:26.620Z,79.80
2018-03-30T15:36:00.332Z,80.00
2018-03-30T15:38:29.643Z,80.20
2018-03-30T15:40:58.919Z,79.90
2018-03-30T15:43:28.781Z,79.80
2018-03-30T15:59:38.720Z,82.60
2018-03-30T16:02:07.969Z,83.40
2018-03-30T16:04:37.250Z,84.50
2018-03-30T16:07:06.514Z,84.50
2018-03-30T16:09:51.479Z,84.70
2018-03-30T16:12:24.114Z,85.40
2018-03-30T16:14:53.418Z,85.50
2018-03-30T16:17:22.711Z,86.10
2018-03-30T16:19:51.315Z,86.00
2018-03-30T16:22:19.838Z,86.50
2018-03-30T16:24:49.104Z,87.10
2018-03-30T16:27:17.644Z,87.10
2018-03-30T16:29:46.206Z,87.40
2018-03-30T16:32:14.684Z,87.60
2018-03-30T16:34:43.974Z,88.00
2018-03-30T16:37:12.415Z,88.00
2018-03-30T16:39:40.894Z,88.10
2018-03-30T16:42:09.463Z,88.10
2018-03-30T16:44:37.972Z,88.30
2018-03-30T16:47:06.478Z,88.30
2018-03-30T16:49:35.076Z,88.30
2018-03-30T16:52:03.698Z,88.40
2018-03-30T16:54:32.376Z,88.60
2018-03-30T16:57:00.964Z,88.90
2018-03-30T16:59:29.670Z,89.00
2018-03-30T17:01:58.454Z,89.10
2018-03-30T17:04:27.032Z,88.90
2018-03-30T17:06:56.118Z,88.90
2018-03-30T17:09:24.648Z,88.90
2018-03-30T17:11:53.971Z,89.50
2018-03-30T17:14:22.530Z,89.50
2018-03-30T17:16:51.045Z,89.20
2018-03-30T17:19:19.624Z,89.80
2018-03-30T17:21:48.137Z,90.00
2018-03-30T17:24:16.697Z,90.00
2018-03-30T17:26:45.772Z,90.10
2018-03-30T17:29:14.318Z,90.10
2018-03-30T17:31:42.835Z,90.30
2018-03-30T17:34:12.281Z,90.50
2018-03-30T17:36:40.852Z,90.40
2018-03-30T17:39:09.388Z,90.40
2018-03-30T17:41:38.048Z,90.50
2018-03-30T17:44:06.560Z,90.50
2018-03-30T17:46:35.865Z,90.80
2018-03-30T17:49:05.283Z,90.80
2018-03-30T17:51:33.812Z,90.80
2018-03-30T17:54:02.338Z,90.80
2018-03-30T17:56:30.996Z,90.80
2018-03-30T17:58:59.508Z,90.90
2018-03-30T18:01:27.997Z,90.90
2018-03-30T18:03:57.069Z,90.90
2018-03-30T18:06:26.357Z,90.30
2018-03-30T18:08:54.960Z,90.30
2018-03-30T18:11:23.640Z,90.30
2018-03-30T18:13:52.942Z,90.50
2018-03-30T18:16:22.206Z,90.70
2018-03-30T18:18:50.748Z,90.70
2018-03-30T18:21:19.290Z,90.80
2018-03-30T18:23:48.595Z,91.00
2018-03-30T18:26:17.115Z,90.90
2018-03-30T18:28:45.683Z,90.60
2018-03-30T18:31:14.261Z,90.60
2018-03-30T18:33:43.584Z,90.60
2018-03-30T18:36:12.096Z,90.60
2018-03-30T18:38:40.651Z,90.60
2018-03-30T18:41:09.994Z,90.60
2018-03-30T18:43:38.523Z,90.60
2018-03-30T18:46:07.178Z,90.50
2018-03-30T18:48:36.467Z,90.80
2018-03-30T18:51:04.985Z,90.70
2018-03-30T18:53:33.544Z,90.80
2018-03-30T18:56:02.844Z,91.00
2018-03-30T18:58:32.130Z,91.10
2018-03-30T19:01:00.781Z,91.10
2018-03-30T19:03:29.314Z,91.30
2018-03-30T19:05:58.715Z,91.30
2018-03-30T19:08:28.051Z,91.30
2018-03-30T19:10:56.697Z,91.30
2018-03-30T19:13:26.006Z,91.50
2018-03-30T19:15:55.335Z,91.90
2018-03-30T19:18:23.880Z,91.60
2018-03-30T19:20:53.168Z,91.50
2018-03-30T19:23:21.738Z,91.40
2018-03-30T19:25:50.278Z,91.50
2018-03-30T19:28:18.792Z,91.50
2018-03-30T19:30:47.469Z,91.90
2018-03-30T19:33:15.998Z,91.60
2018-03-30T19:35:44.589Z,91.60
2018-03-30T19:38:13.152Z,91.60
2018-03-30T19:40:42.426Z,91.60
2018-03-30T19:43:10.947Z,91.50
2018-03-30T19:45:40.257Z,91.40
2018-03-30T19:48:09.528Z,91.40
2018-03-30T19:50:38.048Z,91.40
2018-03-30T19:53:06.584Z,91.40
2018-03-30T19:55:35.103Z,91.40
2018-03-30T19:58:03.627Z,91.50
2018-03-30T20:00:32.968Z,91.40
2018-03-30T20:03:02.251Z,91.50
2018-03-30T20:05:30.759Z,91.40
2018-03-30T20:08:01.214Z,91.40
2018-03-30T20:10:29.750Z,91.40
2018-03-30T20:12:58.247Z,91.50
2018-03-30T20:15:27.549Z,91.40
2018-03-30T20:17:56.815Z,91.60
2018-03-30T20:20:25.349Z,91.50
2018-03-30T20:22:53.892Z,91.60
2018-03-30T20:25:22.439Z,91.70
2018-03-30T20:27:50.960Z,91.60
2018-03-30T20:30:19.520Z,91.50
2018-03-30T20:32:48.050Z,91.50
2018-03-30T20:35:16.559Z,91.50
2018-03-30T20:37:45.082Z,91.50
2018-03-30T20:40:13.583Z,91.50
2018-03-30T20:42:42.850Z,91.40
2018-03-30T20:45:11.493Z,91.30
2018-03-30T20:47:39.987Z,91.30
2018-03-30T20:50:08.481Z,91.30
2018-03-30T20:52:37.058Z,91.30
2018-03-30T20:57:38.980Z,91.40
2018-03-30T21:00:08.235Z,91.50
2018-03-30T21:02:36.736Z,91.50
2018-03-30T21:05:05.327Z,91.60
2018-03-30T21:07:33.832Z,91.60
2018-03-30T21:10:03.207Z,91.70
2018-03-30T21:12:31.713Z,91.60
2018-03-30T21:15:00.921Z,91.70
2018-03-30T21:17:30.126Z,91.60
2018-03-30T21:19:58.640Z,91.60
2018-03-30T21:22:27.094Z,91.60
2018-03-30T21:24:55.500Z,91.60
2018-03-30T21:27:23.903Z,91.60
2018-03-30T21:29:52.298Z,91.60
2018-03-30T21:32:20.614Z,91.60
2018-03-30T21:34:48.964Z,91.60
2018-03-30T21:37:17.185Z,91.70
2018-03-30T21:39:45.446Z,91.50
2018-03-30T21:42:13.822Z,91.40
2018-03-30T21:44:42.041Z,91.50
2018-03-30T21:47:11.062Z,91.70
2018-03-30T21:49:39.415Z,91.70
2018-03-30T21:52:08.456Z,91.70
2018-03-30T21:54:36.676Z,91.70
2018-03-30T21:57:05.721Z,91.90
2018-03-30T21:59:33.952Z,91.90
2018-03-30T22:02:02.948Z,91.70
2018-03-30T22:04:31.332Z,91.70
2018-03-30T22:06:59.576Z,91.50
2018-03-30T22:09:27.823Z,91.40
2018-03-30T22:11:56.146Z,91.50
2018-03-30T22:14:25.143Z,91.50
2018-03-30T22:16:54.145Z,91.60
2018-03-30T22:19:22.516Z,91.50
2018-03-30T22:21:51.525Z,91.70
2018-03-30T22:24:19.750Z,91.70
2018-03-30T22:26:48.020Z,91.60
2018-03-30T22:29:16.258Z,91.70
2018-03-30T22:31:44.484Z,91.80
2018-03-30T22:34:12.756Z,91.80
2018-03-30T22:36:40.993Z,91.90
2018-03-30T22:39:09.245Z,91.90
2018-03-30T22:41:37.503Z,91.80
2018-03-30T22:44:06.497Z,91.70
2018-03-30T22:46:35.525Z,91.60
2018-03-30T22:49:03.787Z,91.60
2018-03-30T22:51:32.029Z,91.50
2018-03-30T22:54:00.300Z,91.50
2018-03-30T22:56:28.533Z,91.90
2018-03-30T22:58:56.770Z,91.50
2018-03-30T23:01:25.801Z,91.70
2018-03-30T23:03:54.043Z,91.70
2018-03-30T23:06:23.082Z,91.50
2018-03-30T23:08:51.337Z,91.50
2018-03-30T23:11:19.570Z,91.30
2018-03-30T23:13:47.834Z,91.30
2018-03-30T23:16:16.073Z,91.40
2018-03-30T23:18:44.321Z,91.70
2018-03-30T23:21:12.597Z,91.30
2018-03-30T23:23:40.865Z,91.30
2018-03-30T23:26:10.199Z,91.50
2018-03-30T23:28:38.462Z,91.50
2018-03-30T23:31:06.725Z,91.50
2018-03-30T23:33:34.989Z,91.60
2018-03-30T23:36:03.985Z,91.80
2018-03-30T23:38:33.011Z,91.70
2018-03-30T23:41:01.269Z,91.70
2018-03-30T23:43:29.529Z,91.70
2018-03-30T23:45:58.557Z,91.60
2018-03-30T23:48:26.829Z,91.60
2018-03-30T23:50:55.074Z,91.60
2018-03-30T23:53:24.068Z,91.60
2018-03-30T23:55:52.340Z,91.50
2018-03-30T23:58:21.353Z,91.70
